sensor_id;sensor_type;location;lat;lon;timestamp;P1;durP1;ratioP1;P2;durP2;ratioP2
27796;SDS011;15177;50.844;4.412;2024-01-10T00:00:51;12.47;;;6.40;;
27796;SDS011;15177;50.844;4.412;2024-01-10T00:03:17;11.83;;;6.23;;
27796;SDS011;15177;50.844;4.412;2024-01-10T00:05:42;17.30;;;6.97;;
27796;SDS011;15177;50.844;4.412;2024-01-10T00:08:10;12.33;;;6.63;;
27796;SDS011;15177;50.844;4.412;2024-01-10T00:10:36;19.17;;;7.50;;
27796;SDS011;15177;50.844;4.412;2024-01-10T00:13:01;14.57;;;7.07;;
27796;SDS011;15177;50.844;4.412;2024-01-10T00:15:29;13.53;;;6.63;;
27796;SDS011;15177;50.844;4.412;2024-01-10T00:17:55;14.93;;;6.63;;
27796;SDS011;15177;50.844;4.412;2024-01-10T00:20:25;14.73;;;6.83;;
27796;SDS011;15177;50.844;4.412;2024-01-10T00:22:51;16.10;;;7.40;;
27796;SDS011;15177;50.844;4.412;2024-01-10T00:25:21;20.03;;;8.13;;
27796;SDS011;15177;50.844;4.412;2024-01-10T00:27:47;13.33;;;6.97;;
27796;SDS011;15177;50.844;4.412;2024-01-10T00:30:12;18.53;;;6.83;;
27796;SDS011;15177;50.844;4.412;2024-01-10T00:32:40;15.33;;;7.13;;
27796;SDS011;15177;50.844;4.412;2024-01-10T00:35:10;14.43;;;6.93;;
27796;SDS011;15177;50.844;4.412;2024-01-10T00:37:36;15.97;;;6.33;;
27796;SDS011;15177;50.844;4.412;2024-01-10T00:40:04;15.33;;;7.07;;
27796;SDS011;15177;50.844;4.412;2024-01-10T00:42:30;15.37;;;7.70;;
27796;SDS011;15177;50.844;4.412;2024-01-10T00:44:56;15.67;;;7.27;;
27796;SDS011;15177;50.844;4.412;2024-01-10T00:47:22;16.30;;;7.57;;
27796;SDS011;15177;50.844;4.412;2024-01-10T00:49:47;16.13;;;6.37;;
27796;SDS011;15177;50.844;4.412;2024-01-10T00:52:13;14.77;;;7.63;;
27796;SDS011;15177;50.844;4.412;2024-01-10T00:54:41;17.43;;;8.53;;
27796;SDS011;15177;50.844;4.412;2024-01-10T00:57:11;17.77;;;7.30;;
27796;SDS011;15177;50.844;4.412;2024-01-10T00:59:40;16.20;;;7.77;;
27796;SDS011;15177;50.844;4.412;2024-01-10T01:02:05;15.23;;;7.50;;
27796;SDS011;15177;50.844;4.412;2024-01-10T01:04:31;17.03;;;7.13;;
27796;SDS011;15177;50.844;4.412;2024-01-10T01:06:57;15.30;;;7.43;;
27796;SDS011;15177;50.844;4.412;2024-01-10T01:09:27;14.27;;;7.17;;
27796;SDS011;15177;50.844;4.412;2024-01-10T01:11:52;13.63;;;7.10;;
27796;SDS011;15177;50.844;4.412;2024-01-10T01:14:21;15.30;;;7.47;;
27796;SDS011;15177;50.844;4.412;2024-01-10T01:16:48;15.73;;;7.07;;
27796;SDS011;15177;50.844;4.412;2024-01-10T01:19:14;16.40;;;7.00;;
27796;SDS011;15177;50.844;4.412;2024-01-10T01:21:40;19.60;;;7.17;;
27796;SDS011;15177;50.844;4.412;2024-01-10T01:24:06;17.37;;;7.33;;
27796;SDS011;15177;50.844;4.412;2024-01-10T01:26:31;16.17;;;7.43;;
27796;SDS011;15177;50.844;4.412;2024-01-10T01:28:57;16.07;;;7.13;;
27796;SDS011;15177;50.844;4.412;2024-01-10T01:31:23;16.83;;;8.20;;
27796;SDS011;15177;50.844;4.412;2024-01-10T01:33:48;15.20;;;7.27;;
27796;SDS011;15177;50.844;4.412;2024-01-10T01:36:16;17.50;;;7.03;;
27796;SDS011;15177;50.844;4.412;2024-01-10T01:38:42;19.50;;;7.60;;
27796;SDS011;15177;50.844;4.412;2024-01-10T01:41:08;18.10;;;7.53;;
27796;SDS011;15177;50.844;4.412;2024-01-10T01:43:34;13.67;;;7.10;;
27796;SDS011;15177;50.844;4.412;2024-01-10T01:46:00;20.40;;;7.97;;
27796;SDS011;15177;50.844;4.412;2024-01-10T01:48:27;21.10;;;8.37;;
27796;SDS011;15177;50.844;4.412;2024-01-10T01:51:03;18.03;;;7.80;;
27796;SDS011;15177;50.844;4.412;2024-01-10T01:53:31;17.90;;;7.20;;
27796;SDS011;15177;50.844;4.412;2024-01-10T01:56:00;15.37;;;7.90;;
27796;SDS011;15177;50.844;4.412;2024-01-10T01:58:30;14.13;;;7.40;;
27796;SDS011;15177;50.844;4.412;2024-01-10T02:00:56;22.03;;;7.50;;
27796;SDS011;15177;50.844;4.412;2024-01-10T02:03:22;13.97;;;6.87;;
27796;SDS011;15177;50.844;4.412;2024-01-10T02:05:47;17.37;;;8.27;;
27796;SDS011;15177;50.844;4.412;2024-01-10T02:08:13;21.37;;;8.07;;
27796;SDS011;15177;50.844;4.412;2024-01-10T02:10:39;19.13;;;8.37;;
27796;SDS011;15177;50.844;4.412;2024-01-10T02:13:05;17.20;;;7.90;;
27796;SDS011;15177;50.844;4.412;2024-01-10T02:15:31;17.37;;;7.67;;
27796;SDS011;15177;50.844;4.412;2024-01-10T02:17:57;18.23;;;7.33;;
27796;SDS011;15177;50.844;4.412;2024-01-10T02:20:27;18.10;;;7.30;;
27796;SDS011;15177;50.844;4.412;2024-01-10T02:22:53;16.10;;;7.93;;
27796;SDS011;15177;50.844;4.412;2024-01-10T02:25:18;18.33;;;8.57;;
27796;SDS011;15177;50.844;4.412;2024-01-10T02:27:44;15.43;;;6.90;;
27796;SDS011;15177;50.844;4.412;2024-01-10T02:30:12;15.70;;;8.10;;
27796;SDS011;15177;50.844;4.412;2024-01-10T02:32:40;18.67;;;7.43;;
27796;SDS011;15177;50.844;4.412;2024-01-10T02:35:06;19.47;;;8.47;;
27796;SDS011;15177;50.844;4.412;2024-01-10T02:37:36;15.57;;;8.43;;
27796;SDS011;15177;50.844;4.412;2024-01-10T02:40:02;18.63;;;8.13;;
27796;SDS011;15177;50.844;4.412;2024-01-10T02:42:31;16.57;;;7.37;;
27796;SDS011;15177;50.844;4.412;2024-01-10T02:44:59;19.40;;;8.23;;
27796;SDS011;15177;50.844;4.412;2024-01-10T02:47:25;14.40;;;7.17;;
27796;SDS011;15177;50.844;4.412;2024-01-10T02:49:51;15.23;;;7.70;;
27796;SDS011;15177;50.844;4.412;2024-01-10T02:52:16;19.77;;;8.60;;
27796;SDS011;15177;50.844;4.412;2024-01-10T02:54:44;18.70;;;7.37;;
27796;SDS011;15177;50.844;4.412;2024-01-10T02:57:10;19.10;;;8.23;;
27796;SDS011;15177;50.844;4.412;2024-01-10T02:59:38;19.73;;;8.70;;
27796;SDS011;15177;50.844;4.412;2024-01-10T03:02:04;16.77;;;7.10;;
27796;SDS011;15177;50.844;4.412;2024-01-10T03:04:29;18.53;;;8.23;;
27796;SDS011;15177;50.844;4.412;2024-01-10T03:06:55;15.87;;;7.77;;
27796;SDS011;15177;50.844;4.412;2024-01-10T03:09:22;16.00;;;7.57;;
27796;SDS011;15177;50.844;4.412;2024-01-10T03:11:48;20.20;;;8.27;;
27796;SDS011;15177;50.844;4.412;2024-01-10T03:14:16;17.97;;;8.23;;
27796;SDS011;15177;50.844;4.412;2024-01-10T03:16:42;19.03;;;7.90;;
27796;SDS011;15177;50.844;4.412;2024-01-10T03:19:08;17.90;;;8.07;;
27796;SDS011;15177;50.844;4.412;2024-01-10T03:21:33;12.80;;;7.07;;
27796;SDS011;15177;50.844;4.412;2024-01-10T03:24:00;15.97;;;7.70;;
27796;SDS011;15177;50.844;4.412;2024-01-10T03:26:29;18.20;;;7.50;;
27796;SDS011;15177;50.844;4.412;2024-01-10T03:28:57;21.00;;;7.57;;
27796;SDS011;15177;50.844;4.412;2024-01-10T03:31:28;16.23;;;7.63;;
27796;SDS011;15177;50.844;4.412;2024-01-10T03:33:55;16.23;;;8.17;;
27796;SDS011;15177;50.844;4.412;2024-01-10T03:36:24;16.27;;;7.00;;
27796;SDS011;15177;50.844;4.412;2024-01-10T03:38:52;17.00;;;8.10;;
27796;SDS011;15177;50.844;4.412;2024-01-10T03:41:20;19.50;;;7.67;;
27796;SDS011;15177;50.844;4.412;2024-01-10T03:43:46;16.67;;;8.17;;
27796;SDS011;15177;50.844;4.412;2024-01-10T03:46:12;15.83;;;7.37;;
27796;SDS011;15177;50.844;4.412;2024-01-10T03:48:38;16.20;;;7.77;;
27796;SDS011;15177;50.844;4.412;2024-01-10T03:51:13;17.57;;;8.00;;
27796;SDS011;15177;50.844;4.412;2024-01-10T03:53:42;19.27;;;7.60;;
27796;SDS011;15177;50.844;4.412;2024-01-10T03:56:09;17.00;;;8.53;;
27796;SDS011;15177;50.844;4.412;2024-01-10T03:58:35;14.17;;;7.23;;
27796;SDS011;15177;50.844;4.412;2024-01-10T04:01:06;20.57;;;7.63;;
27796;SDS011;15177;50.844;4.412;2024-01-10T04:03:32;16.97;;;7.97;;
27796;SDS011;15177;50.844;4.412;2024-01-10T04:05:59;19.23;;;7.90;;
27796;SDS011;15177;50.844;4.412;2024-01-10T04:08:28;16.53;;;7.20;;
27796;SDS011;15177;50.844;4.412;2024-01-10T04:10:54;17.57;;;8.10;;
27796;SDS011;15177;50.844;4.412;2024-01-10T04:13:22;20.93;;;8.03;;
27796;SDS011;15177;50.844;4.412;2024-01-10T04:15:53;18.70;;;7.67;;
27796;SDS011;15177;50.844;4.412;2024-01-10T04:18:18;18.23;;;8.23;;
27796;SDS011;15177;50.844;4.412;2024-01-10T04:20:47;17.93;;;9.00;;
27796;SDS011;15177;50.844;4.412;2024-01-10T04:23:18;19.07;;;7.63;;
27796;SDS011;15177;50.844;4.412;2024-01-10T04:25:48;14.33;;;8.00;;
27796;SDS011;15177;50.844;4.412;2024-01-10T04:28:13;26.33;;;8.83;;
27796;SDS011;15177;50.844;4.412;2024-01-10T04:30:39;17.07;;;8.27;;
27796;SDS011;15177;50.844;4.412;2024-01-10T04:33:04;20.67;;;9.00;;
27796;SDS011;15177;50.844;4.412;2024-01-10T04:35:32;20.27;;;7.63;;
27796;SDS011;15177;50.844;4.412;2024-01-10T04:37:58;16.17;;;7.70;;
27796;SDS011;15177;50.844;4.412;2024-01-10T04:40:26;19.53;;;8.33;;
27796;SDS011;15177;50.844;4.412;2024-01-10T04:42:54;19.33;;;7.50;;
27796;SDS011;15177;50.844;4.412;2024-01-10T04:45:19;20.00;;;9.07;;
27796;SDS011;15177;50.844;4.412;2024-01-10T04:47:45;19.47;;;8.70;;
27796;SDS011;15177;50.844;4.412;2024-01-10T04:50:11;20.93;;;8.20;;
27796;SDS011;15177;50.844;4.412;2024-01-10T04:52:36;16.70;;;7.97;;
27796;SDS011;15177;50.844;4.412;2024-01-10T04:55:02;18.27;;;8.37;;
27796;SDS011;15177;50.844;4.412;2024-01-10T04:57:31;21.57;;;8.33;;
27796;SDS011;15177;50.844;4.412;2024-01-10T04:59:59;30.17;;;8.87;;
27796;SDS011;15177;50.844;4.412;2024-01-10T05:02:27;16.33;;;7.87;;
27796;SDS011;15177;50.844;4.412;2024-01-10T05:04:57;22.70;;;9.20;;
27796;SDS011;15177;50.844;4.412;2024-01-10T05:07:23;18.20;;;7.50;;
27796;SDS011;15177;50.844;4.412;2024-01-10T05:09:49;21.23;;;8.43;;
27796;SDS011;15177;50.844;4.412;2024-01-10T05:12:14;15.50;;;8.20;;
27796;SDS011;15177;50.844;4.412;2024-01-10T05:14:40;14.80;;;7.63;;
27796;SDS011;15177;50.844;4.412;2024-01-10T05:17:08;23.57;;;7.53;;
27796;SDS011;15177;50.844;4.412;2024-01-10T05:19:33;20.17;;;7.90;;
27796;SDS011;15177;50.844;4.412;2024-01-10T05:22:01;16.13;;;8.17;;
27796;SDS011;15177;50.844;4.412;2024-01-10T05:24:27;17.73;;;7.70;;
27796;SDS011;15177;50.844;4.412;2024-01-10T05:26:53;17.20;;;8.07;;
27796;SDS011;15177;50.844;4.412;2024-01-10T05:29:20;14.77;;;7.13;;
27796;SDS011;15177;50.844;4.412;2024-01-10T05:31:48;18.60;;;8.53;;
27796;SDS011;15177;50.844;4.412;2024-01-10T05:34:14;22.83;;;8.10;;
27796;SDS011;15177;50.844;4.412;2024-01-10T05:36:40;20.73;;;7.80;;
27796;SDS011;15177;50.844;4.412;2024-01-10T05:39:08;23.13;;;8.43;;
27796;SDS011;15177;50.844;4.412;2024-01-10T05:41:36;15.47;;;8.13;;
27796;SDS011;15177;50.844;4.412;2024-01-10T05:44:04;18.23;;;8.17;;
27796;SDS011;15177;50.844;4.412;2024-01-10T05:46:32;19.17;;;8.17;;
27796;SDS011;15177;50.844;4.412;2024-01-10T05:48:58;17.13;;;8.20;;
27796;SDS011;15177;50.844;4.412;2024-01-10T05:51:24;16.90;;;8.03;;
27796;SDS011;15177;50.844;4.412;2024-01-10T05:53:54;21.00;;;8.70;;
27796;SDS011;15177;50.844;4.412;2024-01-10T05:56:19;21.37;;;7.47;;
27796;SDS011;15177;50.844;4.412;2024-01-10T05:58:45;14.40;;;7.40;;
27796;SDS011;15177;50.844;4.412;2024-01-10T06:01:13;16.77;;;8.47;;
27796;SDS011;15177;50.844;4.412;2024-01-10T06:03:39;16.07;;;8.03;;
27796;SDS011;15177;50.844;4.412;2024-01-10T06:06:04;22.77;;;8.07;;
27796;SDS011;15177;50.844;4.412;2024-01-10T06:08:32;21.37;;;8.60;;
27796;SDS011;15177;50.844;4.412;2024-01-10T06:10:58;16.93;;;8.03;;
27796;SDS011;15177;50.844;4.412;2024-01-10T06:13:26;19.40;;;8.10;;
27796;SDS011;15177;50.844;4.412;2024-01-10T06:15:51;20.83;;;8.37;;
27796;SDS011;15177;50.844;4.412;2024-01-10T06:18:17;18.43;;;8.40;;
27796;SDS011;15177;50.844;4.412;2024-01-10T06:20:43;21.50;;;8.47;;
27796;SDS011;15177;50.844;4.412;2024-01-10T06:23:10;18.43;;;8.07;;
27796;SDS011;15177;50.844;4.412;2024-01-10T06:25:36;21.73;;;8.37;;
27796;SDS011;15177;50.844;4.412;2024-01-10T06:28:02;20.00;;;9.07;;
27796;SDS011;15177;50.844;4.412;2024-01-10T06:30:28;20.10;;;9.50;;
27796;SDS011;15177;50.844;4.412;2024-01-10T06:32:53;22.37;;;8.23;;
27796;SDS011;15177;50.844;4.412;2024-01-10T06:35:20;22.53;;;8.50;;
27796;SDS011;15177;50.844;4.412;2024-01-10T06:37:45;18.63;;;8.83;;
27796;SDS011;15177;50.844;4.412;2024-01-10T06:40:11;19.47;;;9.77;;
27796;SDS011;15177;50.844;4.412;2024-01-10T06:42:37;20.20;;;9.27;;
27796;SDS011;15177;50.844;4.412;2024-01-10T06:45:04;18.63;;;8.77;;
27796;SDS011;15177;50.844;4.412;2024-01-10T06:47:32;22.57;;;8.17;;
27796;SDS011;15177;50.844;4.412;2024-01-10T06:49:58;15.37;;;7.80;;
27796;SDS011;15177;50.844;4.412;2024-01-10T06:52:27;21.23;;;7.70;;
27796;SDS011;15177;50.844;4.412;2024-01-10T06:54:52;20.63;;;8.87;;
27796;SDS011;15177;50.844;4.412;2024-01-10T06:57:22;18.03;;;8.77;;
27796;SDS011;15177;50.844;4.412;2024-01-10T06:59:48;24.80;;;9.13;;
27796;SDS011;15177;50.844;4.412;2024-01-10T07:02:14;14.27;;;7.07;;
27796;SDS011;15177;50.844;4.412;2024-01-10T07:04:40;22.90;;;8.93;;
27796;SDS011;15177;50.844;4.412;2024-01-10T07:07:05;22.73;;;8.13;;
27796;SDS011;15177;50.844;4.412;2024-01-10T07:09:36;22.07;;;7.87;;
27796;SDS011;15177;50.844;4.412;2024-01-10T07:12:04;17.67;;;7.87;;
27796;SDS011;15177;50.844;4.412;2024-01-10T07:14:31;16.37;;;8.47;;
27796;SDS011;15177;50.844;4.412;2024-01-10T07:16:57;15.50;;;8.00;;
27796;SDS011;15177;50.844;4.412;2024-01-10T07:19:25;23.33;;;7.73;;
27796;SDS011;15177;50.844;4.412;2024-01-10T07:21:51;15.83;;;7.47;;
27796;SDS011;15177;50.844;4.412;2024-01-10T07:24:19;18.20;;;8.37;;
27796;SDS011;15177;50.844;4.412;2024-01-10T07:26:44;17.53;;;8.30;;
27796;SDS011;15177;50.844;4.412;2024-01-10T07:29:10;20.90;;;7.70;;
27796;SDS011;15177;50.844;4.412;2024-01-10T07:31:38;19.37;;;7.67;;
27796;SDS011;15177;50.844;4.412;2024-01-10T07:34:05;21.20;;;7.80;;
27796;SDS011;15177;50.844;4.412;2024-01-10T07:36:40;17.67;;;7.87;;
27796;SDS011;15177;50.844;4.412;2024-01-10T07:39:31;15.60;;;8.10;;
27796;SDS011;15177;50.844;4.412;2024-01-10T07:42:15;20.03;;;8.00;;
27796;SDS011;15177;50.844;4.412;2024-01-10T07:44:50;24.93;;;8.40;;
27796;SDS011;15177;50.844;4.412;2024-01-10T07:47:18;17.73;;;8.57;;
27796;SDS011;15177;50.844;4.412;2024-01-10T07:49:44;22.30;;;8.10;;
27796;SDS011;15177;50.844;4.412;2024-01-10T07:52:12;19.20;;;7.90;;
27796;SDS011;15177;50.844;4.412;2024-01-10T07:54:38;20.57;;;8.30;;
27796;SDS011;15177;50.844;4.412;2024-01-10T07:57:05;19.77;;;8.30;;
27796;SDS011;15177;50.844;4.412;2024-01-10T07:59:43;20.57;;;8.77;;
27796;SDS011;15177;50.844;4.412;2024-01-10T08:02:10;22.80;;;9.93;;
27796;SDS011;15177;50.844;4.412;2024-01-10T08:04:41;21.10;;;9.00;;
27796;SDS011;15177;50.844;4.412;2024-01-10T08:07:07;18.30;;;8.77;;
27796;SDS011;15177;50.844;4.412;2024-01-10T08:09:36;20.47;;;9.23;;
27796;SDS011;15177;50.844;4.412;2024-01-10T08:12:04;16.67;;;8.27;;
27796;SDS011;15177;50.844;4.412;2024-01-10T08:14:30;19.37;;;7.87;;
27796;SDS011;15177;50.844;4.412;2024-01-10T08:16:56;25.67;;;9.57;;
27796;SDS011;15177;50.844;4.412;2024-01-10T08:19:23;22.90;;;8.67;;
27796;SDS011;15177;50.844;4.412;2024-01-10T08:21:53;19.07;;;8.57;;
27796;SDS011;15177;50.844;4.412;2024-01-10T08:24:19;17.50;;;8.50;;
27796;SDS011;15177;50.844;4.412;2024-01-10T08:26:46;23.93;;;9.33;;
27796;SDS011;15177;50.844;4.412;2024-01-10T08:29:42;21.67;;;8.40;;
27796;SDS011;15177;50.844;4.412;2024-01-10T08:32:14;27.10;;;9.57;;
27796;SDS011;15177;50.844;4.412;2024-01-10T08:35:03;26.90;;;9.20;;
27796;SDS011;15177;50.844;4.412;2024-01-10T08:37:46;18.63;;;8.70;;
27796;SDS011;15177;50.844;4.412;2024-01-10T08:40:31;21.97;;;8.67;;
27796;SDS011;15177;50.844;4.412;2024-01-10T08:43:05;16.87;;;8.30;;
27796;SDS011;15177;50.844;4.412;2024-01-10T08:45:31;23.77;;;8.83;;
27796;SDS011;15177;50.844;4.412;2024-01-10T08:47:57;22.97;;;8.87;;
27796;SDS011;15177;50.844;4.412;2024-01-10T08:50:23;21.63;;;9.10;;
27796;SDS011;15177;50.844;4.412;2024-01-10T08:52:49;22.70;;;8.87;;
27796;SDS011;15177;50.844;4.412;2024-01-10T08:55:16;23.07;;;9.53;;
27796;SDS011;15177;50.844;4.412;2024-01-10T08:57:42;21.37;;;8.73;;
27796;SDS011;15177;50.844;4.412;2024-01-10T09:00:13;18.03;;;8.87;;
27796;SDS011;15177;50.844;4.412;2024-01-10T09:02:43;20.80;;;8.23;;
27796;SDS011;15177;50.844;4.412;2024-01-10T09:05:11;20.63;;;8.80;;
27796;SDS011;15177;50.844;4.412;2024-01-10T09:07:37;20.67;;;8.90;;
27796;SDS011;15177;50.844;4.412;2024-01-10T09:10:03;24.67;;;9.33;;
27796;SDS011;15177;50.844;4.412;2024-01-10T09:12:30;19.63;;;8.33;;
27796;SDS011;15177;50.844;4.412;2024-01-10T09:14:56;26.07;;;9.30;;
27796;SDS011;15177;50.844;4.412;2024-01-10T09:17:22;21.50;;;8.20;;
27796;SDS011;15177;50.844;4.412;2024-01-10T09:19:50;23.67;;;9.40;;
27796;SDS011;15177;50.844;4.412;2024-01-10T09:22:18;23.60;;;9.33;;
27796;SDS011;15177;50.844;4.412;2024-01-10T09:24:44;20.83;;;9.43;;
27796;SDS011;15177;50.844;4.412;2024-01-10T09:27:10;19.53;;;9.47;;
27796;SDS011;15177;50.844;4.412;2024-01-10T09:29:44;18.47;;;8.27;;
27796;SDS011;15177;50.844;4.412;2024-01-10T09:32:10;19.33;;;9.70;;
27796;SDS011;15177;50.844;4.412;2024-01-10T09:34:36;20.00;;;9.73;;
27796;SDS011;15177;50.844;4.412;2024-01-10T09:37:07;20.33;;;9.33;;
27796;SDS011;15177;50.844;4.412;2024-01-10T09:39:33;22.80;;;10.17;;
27796;SDS011;15177;50.844;4.412;2024-01-10T09:42:01;21.77;;;9.60;;
27796;SDS011;15177;50.844;4.412;2024-01-10T09:44:26;23.00;;;9.43;;
27796;SDS011;15177;50.844;4.412;2024-01-10T09:46:56;22.67;;;10.57;;
27796;SDS011;15177;50.844;4.412;2024-01-10T09:49:22;25.07;;;10.47;;
27796;SDS011;15177;50.844;4.412;2024-01-10T09:51:48;17.33;;;8.70;;
27796;SDS011;15177;50.844;4.412;2024-01-10T09:54:16;20.57;;;9.00;;
27796;SDS011;15177;50.844;4.412;2024-01-10T09:56:45;24.83;;;8.90;;
27796;SDS011;15177;50.844;4.412;2024-01-10T09:59:10;17.13;;;9.40;;
27796;SDS011;15177;50.844;4.412;2024-01-10T10:01:37;23.77;;;10.43;;
27796;SDS011;15177;50.844;4.412;2024-01-10T10:04:06;19.07;;;9.47;;
27796;SDS011;15177;50.844;4.412;2024-01-10T10:06:35;26.13;;;9.80;;
27796;SDS011;15177;50.844;4.412;2024-01-10T10:09:01;21.80;;;9.37;;
27796;SDS011;15177;50.844;4.412;2024-01-10T10:11:26;23.77;;;9.47;;
27796;SDS011;15177;50.844;4.412;2024-01-10T10:13:52;25.80;;;10.87;;
27796;SDS011;15177;50.844;4.412;2024-01-10T10:16:27;22.80;;;10.07;;
27796;SDS011;15177;50.844;4.412;2024-01-10T10:19:06;20.43;;;10.27;;
27796;SDS011;15177;50.844;4.412;2024-01-10T10:21:31;20.27;;;10.53;;
27796;SDS011;15177;50.844;4.412;2024-01-10T10:23:59;25.00;;;10.40;;
27796;SDS011;15177;50.844;4.412;2024-01-10T10:26:27;20.67;;;9.90;;
27796;SDS011;15177;50.844;4.412;2024-01-10T10:28:54;23.43;;;9.93;;
27796;SDS011;15177;50.844;4.412;2024-01-10T10:31:21;22.43;;;10.73;;
27796;SDS011;15177;50.844;4.412;2024-01-10T10:33:49;18.83;;;9.83;;
27796;SDS011;15177;50.844;4.412;2024-01-10T10:36:20;21.23;;;9.60;;
27796;SDS011;15177;50.844;4.412;2024-01-10T10:38:49;20.37;;;9.73;;
27796;SDS011;15177;50.844;4.412;2024-01-10T10:41:24;16.13;;;9.23;;
27796;SDS011;15177;50.844;4.412;2024-01-10T10:43:52;21.67;;;10.03;;
27796;SDS011;15177;50.844;4.412;2024-01-10T10:46:20;23.67;;;9.93;;
27796;SDS011;15177;50.844;4.412;2024-01-10T10:48:47;26.30;;;10.03;;
27796;SDS011;15177;50.844;4.412;2024-01-10T10:51:16;26.50;;;11.17;;
27796;SDS011;15177;50.844;4.412;2024-01-10T10:53:43;21.97;;;10.67;;
27796;SDS011;15177;50.844;4.412;2024-01-10T10:56:10;22.33;;;10.50;;
27796;SDS011;15177;50.844;4.412;2024-01-10T10:58:41;24.40;;;9.47;;
27796;SDS011;15177;50.844;4.412;2024-01-10T11:01:08;28.13;;;11.20;;
27796;SDS011;15177;50.844;4.412;2024-01-10T11:03:36;21.60;;;10.20;;
27796;SDS011;15177;50.844;4.412;2024-01-10T11:06:09;24.47;;;10.47;;
27796;SDS011;15177;50.844;4.412;2024-01-10T11:11:26;27.33;;;11.17;;
27796;SDS011;15177;50.844;4.412;2024-01-10T11:16:54;22.20;;;10.77;;
27796;SDS011;15177;50.844;4.412;2024-01-10T11:25:21;19.90;;;9.83;;
27796;SDS011;15177;50.844;4.412;2024-01-10T11:27:56;30.47;;;11.37;;
27796;SDS011;15177;50.844;4.412;2024-01-10T11:30:35;27.27;;;10.93;;
27796;SDS011;15177;50.844;4.412;2024-01-10T11:33:23;21.63;;;9.70;;
27796;SDS011;15177;50.844;4.412;2024-01-10T11:36:09;20.13;;;9.27;;
27796;SDS011;15177;50.844;4.412;2024-01-10T11:41:20;30.07;;;10.83;;
27796;SDS011;15177;50.844;4.412;2024-01-10T11:46:38;40.53;;;11.37;;
27796;SDS011;15177;50.844;4.412;2024-01-10T11:49:10;25.67;;;10.40;;
27796;SDS011;15177;50.844;4.412;2024-01-10T11:51:43;21.63;;;10.20;;
27796;SDS011;15177;50.844;4.412;2024-01-10T11:54:11;31.23;;;10.43;;
27796;SDS011;15177;50.844;4.412;2024-01-10T11:57:00;28.40;;;12.53;;
27796;SDS011;15177;50.844;4.412;2024-01-10T11:59:26;26.07;;;10.40;;
27796;SDS011;15177;50.844;4.412;2024-01-10T12:01:52;18.43;;;9.37;;
27796;SDS011;15177;50.844;4.412;2024-01-10T12:04:19;25.17;;;10.87;;
27796;SDS011;15177;50.844;4.412;2024-01-10T12:06:48;23.47;;;11.23;;
27796;SDS011;15177;50.844;4.412;2024-01-10T12:09:13;23.57;;;10.60;;
27796;SDS011;15177;50.844;4.412;2024-01-10T12:11:39;25.23;;;11.57;;
27796;SDS011;15177;50.844;4.412;2024-01-10T12:14:06;23.47;;;10.97;;
27796;SDS011;15177;50.844;4.412;2024-01-10T12:16:33;22.23;;;10.87;;
27796;SDS011;15177;50.844;4.412;2024-01-10T12:18:59;28.23;;;10.60;;
27796;SDS011;15177;50.844;4.412;2024-01-10T12:21:25;30.13;;;11.60;;
27796;SDS011;15177;50.844;4.412;2024-01-10T12:23:51;28.60;;;11.80;;
27796;SDS011;15177;50.844;4.412;2024-01-10T12:26:19;25.77;;;10.80;;
27796;SDS011;15177;50.844;4.412;2024-01-10T12:28:56;27.07;;;11.23;;
27796;SDS011;15177;50.844;4.412;2024-01-10T12:31:29;21.70;;;11.30;;
27796;SDS011;15177;50.844;4.412;2024-01-10T12:33:55;28.80;;;10.80;;
27796;SDS011;15177;50.844;4.412;2024-01-10T12:36:24;21.13;;;11.13;;
27796;SDS011;15177;50.844;4.412;2024-01-10T12:38:51;25.57;;;11.67;;
27796;SDS011;15177;50.844;4.412;2024-01-10T12:41:18;24.83;;;12.20;;
27796;SDS011;15177;50.844;4.412;2024-01-10T12:43:54;28.53;;;11.87;;
27796;SDS011;15177;50.844;4.412;2024-01-10T12:46:20;25.53;;;11.43;;
27796;SDS011;15177;50.844;4.412;2024-01-10T12:49:03;30.10;;;11.63;;
27796;SDS011;15177;50.844;4.412;2024-01-10T12:51:30;23.50;;;11.83;;
27796;SDS011;15177;50.844;4.412;2024-01-10T12:53:58;26.07;;;12.37;;
27796;SDS011;15177;50.844;4.412;2024-01-10T12:56:25;22.07;;;10.33;;
27796;SDS011;15177;50.844;4.412;2024-01-10T12:58:54;26.80;;;11.77;;
27796;SDS011;15177;50.844;4.412;2024-01-10T13:01:20;25.90;;;11.37;;
27796;SDS011;15177;50.844;4.412;2024-01-10T13:03:47;27.43;;;12.17;;
27796;SDS011;15177;50.844;4.412;2024-01-10T13:06:13;22.63;;;10.67;;
27796;SDS011;15177;50.844;4.412;2024-01-10T13:08:43;31.43;;;11.87;;
27796;SDS011;15177;50.844;4.412;2024-01-10T13:11:11;22.53;;;11.17;;
27796;SDS011;15177;50.844;4.412;2024-01-10T13:13:39;27.00;;;12.30;;
27796;SDS011;15177;50.844;4.412;2024-01-10T13:16:10;33.40;;;11.53;;
27796;SDS011;15177;50.844;4.412;2024-01-10T13:18:38;21.83;;;11.37;;
27796;SDS011;15177;50.844;4.412;2024-01-10T13:21:04;22.17;;;11.17;;
27796;SDS011;15177;50.844;4.412;2024-01-10T13:23:33;22.53;;;11.23;;
27796;SDS011;15177;50.844;4.412;2024-01-10T13:25:59;30.67;;;11.47;;
27796;SDS011;15177;50.844;4.412;2024-01-10T13:28:25;26.00;;;12.23;;
27796;SDS011;15177;50.844;4.412;2024-01-10T13:30:54;30.27;;;12.33;;
27796;SDS011;15177;50.844;4.412;2024-01-10T13:33:23;24.83;;;11.77;;
27796;SDS011;15177;50.844;4.412;2024-01-10T13:35:50;27.30;;;11.97;;
27796;SDS011;15177;50.844;4.412;2024-01-10T13:38:16;22.87;;;10.97;;
27796;SDS011;15177;50.844;4.412;2024-01-10T13:40:42;28.50;;;12.97;;
27796;SDS011;15177;50.844;4.412;2024-01-10T13:43:11;25.43;;;12.13;;
27796;SDS011;15177;50.844;4.412;2024-01-10T13:45:39;27.53;;;12.03;;
27796;SDS011;15177;50.844;4.412;2024-01-10T13:48:05;25.47;;;11.87;;
27796;SDS011;15177;50.844;4.412;2024-01-10T13:50:31;26.20;;;11.43;;
27796;SDS011;15177;50.844;4.412;2024-01-10T13:52:57;22.27;;;11.93;;
27796;SDS011;15177;50.844;4.412;2024-01-10T13:55:23;30.20;;;12.37;;
27796;SDS011;15177;50.844;4.412;2024-01-10T13:57:49;21.47;;;10.97;;
27796;SDS011;15177;50.844;4.412;2024-01-10T14:00:16;28.53;;;11.57;;
27796;SDS011;15177;50.844;4.412;2024-01-10T14:02:46;24.30;;;12.00;;
27796;SDS011;15177;50.844;4.412;2024-01-10T14:05:12;28.27;;;12.73;;
27796;SDS011;15177;50.844;4.412;2024-01-10T14:07:41;28.67;;;12.33;;
27796;SDS011;15177;50.844;4.412;2024-01-10T14:10:10;21.53;;;11.20;;
27796;SDS011;15177;50.844;4.412;2024-01-10T14:12:38;24.43;;;11.40;;
27796;SDS011;15177;50.844;4.412;2024-01-10T14:15:04;24.63;;;11.60;;
27796;SDS011;15177;50.844;4.412;2024-01-10T14:17:30;27.53;;;12.33;;
27796;SDS011;15177;50.844;4.412;2024-01-10T14:19:56;29.60;;;11.63;;
27796;SDS011;15177;50.844;4.412;2024-01-10T14:22:21;26.47;;;11.93;;
27796;SDS011;15177;50.844;4.412;2024-01-10T14:24:49;30.27;;;12.33;;
27796;SDS011;15177;50.844;4.412;2024-01-10T14:27:15;25.33;;;11.67;;
27796;SDS011;15177;50.844;4.412;2024-01-10T14:29:41;24.03;;;11.47;;
27796;SDS011;15177;50.844;4.412;2024-01-10T14:32:07;30.47;;;11.73;;
27796;SDS011;15177;50.844;4.412;2024-01-10T14:34:33;24.57;;;10.83;;
27796;SDS011;15177;50.844;4.412;2024-01-10T14:36:58;29.07;;;13.00;;
27796;SDS011;15177;50.844;4.412;2024-01-10T14:39:24;25.87;;;12.47;;
27796;SDS011;15177;50.844;4.412;2024-01-10T14:41:50;27.73;;;13.80;;
27796;SDS011;15177;50.844;4.412;2024-01-10T14:44:15;24.40;;;11.80;;
27796;SDS011;15177;50.844;4.412;2024-01-10T14:46:41;24.17;;;11.77;;
27796;SDS011;15177;50.844;4.412;2024-01-10T14:49:09;22.97;;;11.53;;
27796;SDS011;15177;50.844;4.412;2024-01-10T14:51:35;26.63;;;13.27;;